Historyczne dane pomiarowe

Dodano dane terminowe – wersja testowa.

Dane z okresu 1951-2019

Wersja bazy: 1.34 [2019-03-16, lista zmian], aktualizacja planowana na 2019-04-15

Dane meteo z obszaru Polski uzyskane na podstawie danych udostępnionych przez Instytut Meteorologii i Gospodarki Wodnej – Państwowy Instytut Badawczy.

 

Wybierz Datę:    

       

TemperaturaWilgotnośćWiatrCiśnienieOpadyŚniegCzas trwania zjawisk
 Stacja t tx tn tng RH VA  wxwx mslp ppp RRR   cm mm wxwxwxwxwxwxwx
1983-08-14 13.3 17.7 8.7- 79.5- 3.7 2.7---- 1.4------------
1983-08-13 14.4 21.0 11.8- 87.5- 5.3 1.7---- 3.8------------
1983-08-12 20.8 27.1 16.0- 68.8- 1.7 0.0---- 6.1------------
1983-08-11 19.7 24.4 16.1- 81.3- 6.0 1.7---- 0.0------------
1983-08-10 19.5 25.1 12.8- 81.5- 2.7 2.3---- 0.2------------
1983-08-09 16.3 26.2 13.2- 87.0- 5.0 1.0---- 0.7------------
1983-08-08 19.0 24.2 15.1- 79.8- 4.3 2.3---- 3.4------------
1983-08-07 17.0 22.9 13.7- 89.5- 7.3 1.7---- 8.6------------
1983-08-06 15.2 20.2 8.7- 80.0- 4.0 0.7---- 4.9------------
1983-08-05 13.1 16.1 10.0- 82.8- 7.3 1.3---- 0.0------------
1983-08-04 12.6 22.4 10.9- 95.5- 8.0 1.3---- 15.2------------
1983-08-03 20.3 25.1 16.2- 89.5- 6.7 2.0---- 7.6------------
1983-08-02 21.1 29.3 12.7- 68.8- 2.7 1.3---- 2.4------------
1983-08-01 17.8 26.0 8.3- 66.8- 0.3 0.7---- 0.0------------
1983-07-31 16.9 23.1 9.1- 68.8- 0.7 1.0---- 0.0------------
1983-07-30 18.3 24.4 14.9- 70.3- 5.3 2.7---- 0.0------------
1983-07-29 19.9 26.2 12.7- 60.5- 1.3 2.0---- 0.0------------
1983-07-28 22.4 29.2 17.6- 68.8- 2.7 1.3---- 0.0------------
1983-07-27 23.1 30.3 14.6- 71.3- 1.3 0.3---- 0.4------------
1983-07-26 20.4 26.9 13.7- 71.5- 3.7 2.0---- 0.0------------
1983-07-25 14.8 20.3 8.1- 75.8- 3.3 1.3---- 0.0------------
1983-07-24 15.9 19.3 14.0- 85.3- 6.0 0.3---- 3.5------------
1983-07-23 15.7 20.7 12.8- 82.0- 6.0 2.0---- 0.2------------
1983-07-22 12.2 15.0 9.1- 81.5- 7.3 2.7---- 0.0------------
1983-07-21 13.9 22.1 10.6- 65.8- 7.3 2.3---- 0.1------------
1983-07-20 16.2 26.3 12.3- 90.3- 6.0 2.0---- 2.1------------
1983-07-19 21.2 29.2 13.4- 69.8- 2.7 0.0---- 23.5------------
1983-07-18 20.9 28.9 11.6- 64.5- 1.3 0.3---- 0.0------------
1983-07-17 20.3 26.0 15.7- 76.0- 1.3 1.7---- 0.0------------
1983-07-16 19.9 27.7 11.4- 68.3- 2.0 1.0---- 0.0------------
1983-07-15 19.2 24.7 12.4- 66.8- 0.3 1.0---- 0.0------------
1983-07-14 17.2 20.8 15.5- 97.5- 8.0 2.0---- 19.2------------
1983-07-13 16.1 23.4 13.6- 98.3- 7.3 0.3---- 46.6------------
1983-07-12 18.3 25.3 15.1- 85.3- 4.7 1.3---- 1.2------------
1983-07-11 19.8 27.2 16.1- 68.0- 5.3 1.3---- 14.8------------
1983-07-10 23.9 29.7 14.8- 50.5- 0.0 1.7---- 0.0------------
1983-07-09 21.7 28.6 12.0- 58.0- 0.7 2.0---- 0.0------------
1983-07-08 20.3 27.4 7.4- 49.3- 0.0 1.3---- 0.0------------
1983-07-07 21.5 27.8 13.2- 55.5- 0.0 1.0---- 0.0------------
1983-07-06 21.0 28.0 10.4- 59.3- 0.3 1.3---- 0.0------------
1983-07-05 19.0 26.8 10.0- 72.0- 2.0 1.3---- 0.0------------
1983-07-04 19.4 26.0 8.6- 58.0- 0.7 0.3---- 0.0------------
1983-07-03 18.5 24.2 10.0- 60.5- 1.3 1.0---- 0.0------------
1983-07-02 19.2 25.4 11.0- 74.8- 2.7 1.7---- 0.0------------
1983-07-01 18.8 26.8 10.9- 67.0- 0.3 0.7---- 0.0------------
1983-06-30 16.0 23.8 5.2- 70.0- 0.7 1.3---- 0.0------------
1983-06-29 15.3 20.1 7.2- 63.0- 2.0 1.0---- 0.0------------
1983-06-28 15.8 20.9 12.9- 90.0- 6.7 2.0---- 5.6------------
1983-06-27 18.7 28.0 11.2- 75.8- 2.0 0.7---- 0.4------------
1983-06-26 20.0 25.3 16.2- 78.3- 5.3 1.7---- 0.0------------
1983-06-25 19.0 27.5 7.6- 63.8- 1.3 1.0---- 0.3------------
1983-06-24 17.1 26.2 3.8- 55.5- 0.0 0.3---- 0.0------------
1983-06-23 13.7 20.4 4.9- 57.8- 0.0 0.7---- 0.0------------
1983-06-22 13.9 20.4 9.0- 56.5- 0.0 2.0---- 0.0------------
1983-06-21 19.1 24.8 11.7- 69.5- 2.7 2.0---- 0.0------------
1983-06-20 18.6 23.9 14.9- 82.5- 5.0 1.7---- 0.0------------
1983-06-19 16.7 21.4 12.4- 88.3- 4.7 3.3---- 0.0------------
1983-06-18 12.3 15.6 10.9- 93.8- 8.0 3.0---- 14.4------------
1983-06-17 12.9 19.4 7.2- 78.0- 5.7 2.3---- 4.8------------
1983-06-16 12.0 14.6 10.7- 86.8- 6.7 2.0---- 0.0------------
255.8 ms

 

Źródłem pochodzenia danych jest Instytut Meteorologii i Gospodarki Wodnej – Państwowy Instytut Badawczy. Dane Instytutu Meteorologii i Gospodarki Wodnej – Państwowego Instytutu Badawczego zostały przetworzone.

Dane źródłowe można odnaleźć na stronie https://dane.imgw.pl